sensor_id;sensor_type;location;lat;lon;timestamp;pressure;altitude;pressure_sealevel;temperature;humidity
52319;BME280;38258;51.148;14.068;2022-12-29T01:17:51;97679.22;;;5.83;100.00
52319;BME280;38258;51.148;14.068;2022-12-29T01:20:18;97672.22;;;5.86;100.00
52319;BME280;38258;51.148;14.068;2022-12-29T01:22:45;97676.78;;;5.75;100.00
52319;BME280;38258;51.148;14.068;2022-12-29T01:25:12;97683.91;;;5.65;100.00
52319;BME280;38258;51.148;14.068;2022-12-29T01:27:39;97682.63;;;5.41;100.00
52319;BME280;38258;51.148;14.068;2022-12-29T01:30:07;97676.59;;;5.40;100.00
52319;BME280;38258;51.148;14.068;2022-12-29T01:32:34;97680.94;;;5.38;100.00
52319;BME280;38258;51.148;14.068;2022-12-29T01:35:03;97679.97;;;5.45;100.00
52319;BME280;38258;51.148;14.068;2022-12-29T01:37:33;97679.25;;;5.37;100.00
52319;BME280;38258;51.148;14.068;2022-12-29T01:40:01;97682.03;;;5.26;100.00
52319;BME280;38258;51.148;14.068;2022-12-29T01:42:28;97675.78;;;5.36;100.00
52319;BME280;38258;51.148;14.068;2022-12-29T01:44:56;97660.28;;;5.33;100.00
52319;BME280;38258;51.148;14.068;2022-12-29T01:47:31;97677.63;;;5.31;100.00
52319;BME280;38258;51.148;14.068;2022-12-29T01:50:05;97661.84;;;5.42;100.00
52319;BME280;38258;51.148;14.068;2022-12-29T01:52:35;97649.44;;;5.58;100.00
52319;BME280;38258;51.148;14.068;2022-12-29T01:55:05;97633.53;;;5.31;100.00
52319;BME280;38258;51.148;14.068;2022-12-29T01:57:35;97660.06;;;5.46;100.00
52319;BME280;38258;51.148;14.068;2022-12-29T02:00:05;97643.84;;;5.34;100.00
52319;BME280;38258;51.148;14.068;2022-12-29T02:02:42;97672.97;;;5.49;100.00
52319;BME280;38258;51.148;14.068;2022-12-29T02:05:19;97673.78;;;5.51;100.00
52319;BME280;38258;51.148;14.068;2022-12-29T02:07:48;97669.31;;;5.59;100.00
52319;BME280;38258;51.148;14.068;2022-12-29T02:10:17;97676.78;;;5.31;100.00
52319;BME280;38258;51.148;14.068;2022-12-29T02:12:46;97672.63;;;5.20;100.00
52319;BME280;38258;51.148;14.068;2022-12-29T02:15:15;97671.69;;;5.24;100.00
52319;BME280;38258;51.148;14.068;2022-12-29T02:18:01;97671.75;;;5.21;100.00
52319;BME280;38258;51.148;14.068;2022-12-29T02:27:52;97650.41;;;5.07;100.00
52319;BME280;38258;51.148;14.068;2022-12-29T02:30:40;97651.16;;;5.14;100.00
52319;BME280;38258;51.148;14.068;2022-12-29T02:33:20;97644.53;;;4.97;100.00
52319;BME280;38258;51.148;14.068;2022-12-29T02:35:54;97646.84;;;5.13;100.00
52319;BME280;38258;51.148;14.068;2022-12-29T02:38:31;97641.53;;;5.19;100.00
52319;BME280;38258;51.148;14.068;2022-12-29T02:41:04;97636.53;;;5.09;100.00
52319;BME280;38258;51.148;14.068;2022-12-29T02:43:37;97642.38;;;5.21;100.00
52319;BME280;38258;51.148;14.068;2022-12-29T02:46:12;97645.69;;;5.28;100.00
52319;BME280;38258;51.148;14.068;2022-12-29T02:48:55;97630.34;;;5.18;100.00
52319;BME280;38258;51.148;14.068;2022-12-29T02:51:30;97635.38;;;5.24;100.00
52319;BME280;38258;51.148;14.068;2022-12-29T02:53:59;97627.22;;;5.45;100.00
52319;BME280;38258;51.148;14.068;2022-12-29T02:56:43;97625.44;;;5.47;100.00
52319;BME280;38258;51.148;14.068;2022-12-29T02:59:11;97607.59;;;5.33;100.00
52319;BME280;38258;51.148;14.068;2022-12-29T03:01:57;97611.50;;;5.54;100.00
52319;BME280;38258;51.148;14.068;2022-12-29T03:07:39;97600.31;;;5.50;100.00
52319;BME280;38258;51.148;14.068;2022-12-29T03:10:14;97625.78;;;5.72;100.00
52319;BME280;38258;51.148;14.068;2022-12-29T03:12:47;97610.38;;;5.64;100.00
52319;BME280;38258;51.148;14.068;2022-12-29T03:15:40;97623.97;;;5.77;100.00
52319;BME280;38258;51.148;14.068;2022-12-29T03:18:37;97621.50;;;5.71;100.00
52319;BME280;38258;51.148;14.068;2022-12-29T03:21:09;97621.31;;;5.79;100.00
52319;BME280;38258;51.148;14.068;2022-12-29T03:23:39;97629.06;;;5.82;100.00
52319;BME280;38258;51.148;14.068;2022-12-29T03:26:10;97621.84;;;5.97;100.00
52319;BME280;38258;51.148;14.068;2022-12-29T03:28:41;97624.56;;;5.90;100.00
52319;BME280;38258;51.148;14.068;2022-12-29T03:31:16;97634.81;;;5.97;100.00
52319;BME280;38258;51.148;14.068;2022-12-29T03:33:48;97630.50;;;5.96;100.00
52319;BME280;38258;51.148;14.068;2022-12-29T03:36:23;97623.66;;;5.91;100.00
52319;BME280;38258;51.148;14.068;2022-12-29T03:38:56;97622.75;;;5.94;100.00
52319;BME280;38258;51.148;14.068;2022-12-29T03:41:27;97625.13;;;6.05;100.00
52319;BME280;38258;51.148;14.068;2022-12-29T03:43:55;97615.63;;;6.05;100.00
52319;BME280;38258;51.148;14.068;2022-12-29T03:46:22;97615.63;;;6.05;100.00
52319;BME280;38258;51.148;14.068;2022-12-29T03:48:51;97616.44;;;6.07;100.00
52319;BME280;38258;51.148;14.068;2022-12-29T03:51:18;97615.47;;;6.12;100.00
52319;BME280;38258;51.148;14.068;2022-12-29T03:53:44;97609.59;;;6.03;100.00
52319;BME280;38258;51.148;14.068;2022-12-29T03:56:12;97606.06;;;6.06;100.00
52319;BME280;38258;51.148;14.068;2022-12-29T03:58:39;97601.00;;;6.00;100.00
52319;BME280;38258;51.148;14.068;2022-12-29T04:01:13;97603.84;;;5.87;100.00
52319;BME280;38258;51.148;14.068;2022-12-29T04:03:40;97593.41;;;5.90;100.00
52319;BME280;38258;51.148;14.068;2022-12-29T04:06:08;97602.09;;;5.88;100.00
52319;BME280;38258;51.148;14.068;2022-12-29T04:08:42;97593.50;;;5.86;100.00
52319;BME280;38258;51.148;14.068;2022-12-29T04:11:08;97598.81;;;5.81;100.00
52319;BME280;38258;51.148;14.068;2022-12-29T04:13:35;97585.97;;;5.73;100.00
52319;BME280;38258;51.148;14.068;2022-12-29T04:16:07;97597.47;;;5.61;100.00
52319;BME280;38258;51.148;14.068;2022-12-29T04:18:35;97588.81;;;5.62;100.00
52319;BME280;38258;51.148;14.068;2022-12-29T04:21:02;97590.69;;;5.56;100.00
52319;BME280;38258;51.148;14.068;2022-12-29T04:23:34;97596.75;;;5.55;100.00
52319;BME280;38258;51.148;14.068;2022-12-29T04:26:03;97583.00;;;5.51;100.00
52319;BME280;38258;51.148;14.068;2022-12-29T04:28:32;97589.22;;;5.44;100.00
52319;BME280;38258;51.148;14.068;2022-12-29T04:31:10;97592.69;;;5.43;100.00
52319;BME280;38258;51.148;14.068;2022-12-29T04:33:40;97584.97;;;5.40;100.00
52319;BME280;38258;51.148;14.068;2022-12-29T04:36:07;97578.19;;;5.34;100.00
52319;BME280;38258;51.148;14.068;2022-12-29T04:38:37;97588.50;;;5.35;100.00
52319;BME280;38258;51.148;14.068;2022-12-29T04:41:05;97574.56;;;5.41;100.00
52319;BME280;38258;51.148;14.068;2022-12-29T04:43:33;97581.81;;;5.25;100.00
52319;BME280;38258;51.148;14.068;2022-12-29T04:46:23;97574.72;;;5.33;100.00
52319;BME280;38258;51.148;14.068;2022-12-29T04:49:03;97576.56;;;5.27;100.00
52319;BME280;38258;51.148;14.068;2022-12-29T04:51:51;97561.88;;;5.27;100.00
52319;BME280;38258;51.148;14.068;2022-12-29T04:54:20;97573.16;;;5.24;100.00
52319;BME280;38258;51.148;14.068;2022-12-29T04:56:55;97574.75;;;5.32;100.00
52319;BME280;38258;51.148;14.068;2022-12-29T04:59:23;97580.84;;;5.29;100.00
52319;BME280;38258;51.148;14.068;2022-12-29T05:01:53;97573.06;;;5.29;100.00
52319;BME280;38258;51.148;14.068;2022-12-29T05:04:20;97567.88;;;5.31;100.00
52319;BME280;38258;51.148;14.068;2022-12-29T05:06:47;97566.19;;;5.27;100.00
52319;BME280;38258;51.148;14.068;2022-12-29T05:09:14;97570.31;;;5.38;100.00
52319;BME280;38258;51.148;14.068;2022-12-29T05:11:42;97585.88;;;5.38;100.00
52319;BME280;38258;51.148;14.068;2022-12-29T05:14:09;97582.38;;;5.40;100.00
52319;BME280;38258;51.148;14.068;2022-12-29T05:16:36;97586.09;;;5.26;100.00
52319;BME280;38258;51.148;14.068;2022-12-29T05:19:03;97593.06;;;5.24;100.00
52319;BME280;38258;51.148;14.068;2022-12-29T05:21:31;97606.94;;;5.21;100.00
52319;BME280;38258;51.148;14.068;2022-12-29T05:23:58;97612.28;;;5.12;100.00
52319;BME280;38258;51.148;14.068;2022-12-29T05:26:26;97620.28;;;5.01;100.00
52319;BME280;38258;51.148;14.068;2022-12-29T05:29:04;97613.41;;;4.99;100.00
52319;BME280;38258;51.148;14.068;2022-12-29T05:31:32;97589.50;;;4.83;100.00
52319;BME280;38258;51.148;14.068;2022-12-29T05:33:59;97603.25;;;4.86;100.00
52319;BME280;38258;51.148;14.068;2022-12-29T05:36:27;97610.19;;;4.84;100.00
52319;BME280;38258;51.148;14.068;2022-12-29T05:38:57;97607.69;;;4.79;100.00
52319;BME280;38258;51.148;14.068;2022-12-29T05:41:24;97620.81;;;4.70;100.00
52319;BME280;38258;51.148;14.068;2022-12-29T05:43:51;97619.94;;;4.70;100.00
52319;BME280;38258;51.148;14.068;2022-12-29T05:46:30;97599.25;;;4.68;100.00
52319;BME280;38258;51.148;14.068;2022-12-29T05:49:23;97603.66;;;4.63;100.00
52319;BME280;38258;51.148;14.068;2022-12-29T05:52:22;97601.25;;;4.53;100.00
52319;BME280;38258;51.148;14.068;2022-12-29T05:54:49;97601.31;;;4.47;100.00
52319;BME280;38258;51.148;14.068;2022-12-29T05:57:19;97585.78;;;4.49;100.00
52319;BME280;38258;51.148;14.068;2022-12-29T05:59:53;97589.38;;;4.40;100.00
52319;BME280;38258;51.148;14.068;2022-12-29T06:02:21;97585.03;;;4.42;100.00
52319;BME280;38258;51.148;14.068;2022-12-29T06:04:48;97582.50;;;4.39;100.00
52319;BME280;38258;51.148;14.068;2022-12-29T06:07:15;97589.31;;;4.45;100.00
52319;BME280;38258;51.148;14.068;2022-12-29T06:09:45;97586.75;;;4.42;100.00
52319;BME280;38258;51.148;14.068;2022-12-29T06:12:12;97586.59;;;4.51;100.00
52319;BME280;38258;51.148;14.068;2022-12-29T06:14:42;97588.38;;;4.49;100.00
52319;BME280;38258;51.148;14.068;2022-12-29T06:17:08;97588.53;;;4.38;100.00
52319;BME280;38258;51.148;14.068;2022-12-29T06:19:38;97585.22;;;4.28;100.00
52319;BME280;38258;51.148;14.068;2022-12-29T06:22:04;97581.78;;;4.28;100.00
52319;BME280;38258;51.148;14.068;2022-12-29T06:24:34;97583.25;;;4.44;100.00
52319;BME280;38258;51.148;14.068;2022-12-29T06:27:01;97579.03;;;4.37;100.00
52319;BME280;38258;51.148;14.068;2022-12-29T06:29:28;97582.50;;;4.36;100.00
52319;BME280;38258;51.148;14.068;2022-12-29T06:31:56;97567.84;;;4.36;100.00
52319;BME280;38258;51.148;14.068;2022-12-29T06:34:24;97564.25;;;4.45;100.00
52319;BME280;38258;51.148;14.068;2022-12-29T06:36:52;97561.53;;;4.51;100.00
52319;BME280;38258;51.148;14.068;2022-12-29T06:39:19;97541.88;;;4.41;100.00
52319;BME280;38258;51.148;14.068;2022-12-29T06:42:00;97557.25;;;4.50;100.00
52319;BME280;38258;51.148;14.068;2022-12-29T06:44:46;97559.88;;;4.49;100.00
52319;BME280;38258;51.148;14.068;2022-12-29T06:47:13;97557.22;;;4.52;100.00
52319;BME280;38258;51.148;14.068;2022-12-29T06:49:39;97554.56;;;4.55;100.00
52319;BME280;38258;51.148;14.068;2022-12-29T06:52:09;97543.31;;;4.59;100.00
52319;BME280;38258;51.148;14.068;2022-12-29T06:54:36;97550.09;;;4.65;100.00
52319;BME280;38258;51.148;14.068;2022-12-29T06:57:03;97553.47;;;4.69;100.00
52319;BME280;38258;51.148;14.068;2022-12-29T06:59:30;97550.09;;;4.65;100.00
52319;BME280;38258;51.148;14.068;2022-12-29T07:01:57;97559.53;;;4.67;100.00
52319;BME280;38258;51.148;14.068;2022-12-29T07:04:23;97549.03;;;4.77;100.00
52319;BME280;38258;51.148;14.068;2022-12-29T07:06:50;97547.41;;;4.71;100.00
52319;BME280;38258;51.148;14.068;2022-12-29T07:09:18;97563.78;;;4.72;100.00
52319;BME280;38258;51.148;14.068;2022-12-29T07:11:45;97552.16;;;4.94;100.00
52319;BME280;38258;51.148;14.068;2022-12-29T07:14:12;97565.16;;;4.91;100.00
52319;BME280;38258;51.148;14.068;2022-12-29T07:16:39;97555.50;;;5.00;100.00
52319;BME280;38258;51.148;14.068;2022-12-29T07:19:06;97544.81;;;5.17;100.00
52319;BME280;38258;51.148;14.068;2022-12-29T07:21:33;97557.91;;;5.11;100.00
52319;BME280;38258;51.148;14.068;2022-12-29T07:23:59;97550.56;;;5.30;100.00
52319;BME280;38258;51.148;14.068;2022-12-29T07:26:28;97553.31;;;5.22;100.00
52319;BME280;38258;51.148;14.068;2022-12-29T07:28:54;97565.22;;;5.32;100.00
52319;BME280;38258;51.148;14.068;2022-12-29T07:31:22;97566.69;;;5.46;100.00
52319;BME280;38258;51.148;14.068;2022-12-29T07:33:49;97566.69;;;5.44;100.00
52319;BME280;38258;51.148;14.068;2022-12-29T07:36:16;97568.19;;;5.56;100.00
52319;BME280;38258;51.148;14.068;2022-12-29T07:38:43;97563.84;;;5.58;100.00
52319;BME280;38258;51.148;14.068;2022-12-29T07:41:10;97579.41;;;5.58;100.00
52319;BME280;38258;51.148;14.068;2022-12-29T07:43:38;97575.81;;;5.64;100.00
52319;BME280;38258;51.148;14.068;2022-12-29T07:46:28;97592.75;;;5.80;100.00
52319;BME280;38258;51.148;14.068;2022-12-29T07:48:55;97588.56;;;5.73;100.00
52319;BME280;38258;51.148;14.068;2022-12-29T07:51:22;97599.66;;;5.82;100.00
52319;BME280;38258;51.148;14.068;2022-12-29T07:53:48;97590.78;;;5.92;100.00
52319;BME280;38258;51.148;14.068;2022-12-29T07:56:15;97602.81;;;5.94;100.00
52319;BME280;38258;51.148;14.068;2022-12-29T07:58:43;97581.13;;;5.99;100.00
52319;BME280;38258;51.148;14.068;2022-12-29T08:01:10;97575.03;;;6.00;100.00
52319;BME280;38258;51.148;14.068;2022-12-29T08:03:37;97573.50;;;5.91;100.00
52319;BME280;38258;51.148;14.068;2022-12-29T08:06:09;97578.69;;;5.91;100.00
52319;BME280;38258;51.148;14.068;2022-12-29T08:08:36;97582.28;;;5.85;100.00
52319;BME280;38258;51.148;14.068;2022-12-29T08:11:03;97583.88;;;5.91;100.00
52319;BME280;38258;51.148;14.068;2022-12-29T08:13:30;97573.44;;;5.92;100.00
52319;BME280;38258;51.148;14.068;2022-12-29T08:15:58;97575.88;;;6.00;100.00
52319;BME280;38258;51.148;14.068;2022-12-29T08:18:25;97584.47;;;6.05;100.00
52319;BME280;38258;51.148;14.068;2022-12-29T08:20:52;97581.63;;;6.15;100.00
52319;BME280;38258;51.148;14.068;2022-12-29T08:23:19;97580.63;;;6.22;100.00
52319;BME280;38258;51.148;14.068;2022-12-29T08:25:46;97592.00;;;6.15;100.00
52319;BME280;38258;51.148;14.068;2022-12-29T08:28:13;97597.50;;;6.01;100.00
52319;BME280;38258;51.148;14.068;2022-12-29T08:30:39;97595.94;;;6.33;100.00
52319;BME280;38258;51.148;14.068;2022-12-29T08:33:08;97599.22;;;6.41;100.00
52319;BME280;38258;51.148;14.068;2022-12-29T08:35:34;97586.88;;;6.49;100.00
52319;BME280;38258;51.148;14.068;2022-12-29T08:38:01;97588.84;;;6.40;100.00
52319;BME280;38258;51.148;14.068;2022-12-29T08:40:28;97593.03;;;6.45;100.00
52319;BME280;38258;51.148;14.068;2022-12-29T08:42:55;97585.09;;;6.51;100.00
52319;BME280;38258;51.148;14.068;2022-12-29T08:45:22;97588.66;;;6.47;100.00
52319;BME280;38258;51.148;14.068;2022-12-29T08:47:49;97586.16;;;6.43;100.00
52319;BME280;38258;51.148;14.068;2022-12-29T08:50:17;97592.34;;;6.37;100.00
52319;BME280;38258;51.148;14.068;2022-12-29T08:52:44;97590.34;;;6.48;100.00
52319;BME280;38258;51.148;14.068;2022-12-29T08:55:11;97596.53;;;6.44;100.00
52319;BME280;38258;51.148;14.068;2022-12-29T08:57:38;97605.28;;;6.40;100.00
52319;BME280;38258;51.148;14.068;2022-12-29T09:00:17;97610.72;;;6.29;100.00
52319;BME280;38258;51.148;14.068;2022-12-29T09:02:46;97604.81;;;6.22;100.00
52319;BME280;38258;51.148;14.068;2022-12-29T09:05:13;97600.69;;;6.15;100.00
52319;BME280;38258;51.148;14.068;2022-12-29T09:07:41;97612.44;;;6.30;100.00
52319;BME280;38258;51.148;14.068;2022-12-29T09:10:09;97598.53;;;6.33;100.00
52319;BME280;38258;51.148;14.068;2022-12-29T09:12:36;97595.22;;;6.26;100.00
52319;BME280;38258;51.148;14.068;2022-12-29T09:15:05;97596.91;;;6.29;100.00
52319;BME280;38258;51.148;14.068;2022-12-29T09:17:32;97603.72;;;6.33;100.00
52319;BME280;38258;51.148;14.068;2022-12-29T09:20:09;97606.22;;;6.38;100.00
52319;BME280;38258;51.148;14.068;2022-12-29T09:22:36;97602.47;;;6.49;100.00
52319;BME280;38258;51.148;14.068;2022-12-29T09:25:05;97602.69;;;6.40;100.00
52319;BME280;38258;51.148;14.068;2022-12-29T09:27:32;97601.63;;;6.49;100.00
52319;BME280;38258;51.148;14.068;2022-12-29T09:29:59;97594.00;;;6.41;100.00
52319;BME280;38258;51.148;14.068;2022-12-29T09:32:25;97604.44;;;6.38;100.00
52319;BME280;38258;51.148;14.068;2022-12-29T09:34:52;97596.50;;;6.46;100.00
52319;BME280;38258;51.148;14.068;2022-12-29T09:37:19;97584.19;;;6.53;100.00
52319;BME280;38258;51.148;14.068;2022-12-29T09:39:46;97587.38;;;6.64;100.00
52319;BME280;38258;51.148;14.068;2022-12-29T09:42:19;97601.75;;;6.77;100.00
52319;BME280;38258;51.148;14.068;2022-12-29T09:44:59;97596.03;;;6.64;100.00
52319;BME280;38258;51.148;14.068;2022-12-29T09:47:27;97589.78;;;6.72;100.00
52319;BME280;38258;51.148;14.068;2022-12-29T09:49:56;97579.44;;;6.70;100.00
52319;BME280;38258;51.148;14.068;2022-12-29T09:52:29;97586.44;;;6.68;100.00
52319;BME280;38258;51.148;14.068;2022-12-29T09:55:00;97583.00;;;6.66;100.00
52319;BME280;38258;51.148;14.068;2022-12-29T09:57:34;97580.34;;;6.68;100.00
52319;BME280;38258;51.148;14.068;2022-12-29T10:00:08;97577.41;;;6.82;100.00
52319;BME280;38258;51.148;14.068;2022-12-29T10:02:42;97586.22;;;7.41;100.00
52319;BME280;38258;51.148;14.068;2022-12-29T10:05:31;97590.53;;;7.72;100.00
52319;BME280;38258;51.148;14.068;2022-12-29T10:08:22;97585.91;;;8.37;100.00
52319;BME280;38258;51.148;14.068;2022-12-29T10:10:55;97581.22;;;8.50;100.00
52319;BME280;38258;51.148;14.068;2022-12-29T10:13:30;97592.28;;;8.28;100.00
52319;BME280;38258;51.148;14.068;2022-12-29T10:16:05;97580.09;;;8.57;100.00
52319;BME280;38258;51.148;14.068;2022-12-29T10:18:53;97591.16;;;8.64;100.00
52319;BME280;38258;51.148;14.068;2022-12-29T10:21:29;97585.44;;;8.26;100.00
52319;BME280;38258;51.148;14.068;2022-12-29T10:23:59;97581.47;;;8.95;100.00
52319;BME280;38258;51.148;14.068;2022-12-29T10:26:32;97566.97;;;9.11;100.00
52319;BME280;38258;51.148;14.068;2022-12-29T10:29:05;97579.03;;;8.88;100.00
52319;BME280;38258;51.148;14.068;2022-12-29T10:31:35;97569.56;;;9.11;100.00
52319;BME280;38258;51.148;14.068;2022-12-29T10:34:10;97560.28;;;9.04;100.00
52319;BME280;38258;51.148;14.068;2022-12-29T10:36:43;97569.09;;;9.00;100.00
52319;BME280;38258;51.148;14.068;2022-12-29T10:39:15;97563.97;;;9.22;100.00
52319;BME280;38258;51.148;14.068;2022-12-29T10:41:46;97553.16;;;9.33;100.00
52319;BME280;38258;51.148;14.068;2022-12-29T10:44:17;97557.47;;;9.09;100.00
52319;BME280;38258;51.148;14.068;2022-12-29T10:46:54;97573.81;;;8.63;100.00
52319;BME280;38258;51.148;14.068;2022-12-29T10:49:21;97571.19;;;8.36;100.00
52319;BME280;38258;51.148;14.068;2022-12-29T10:51:54;97570.41;;;8.86;100.00
52319;BME280;38258;51.148;14.068;2022-12-29T10:54:26;97560.44;;;8.99;100.00
52319;BME280;38258;51.148;14.068;2022-12-29T10:56:57;97573.59;;;9.20;100.00
52319;BME280;38258;51.148;14.068;2022-12-29T10:59:29;97553.91;;;9.11;100.00
52319;BME280;38258;51.148;14.068;2022-12-29T11:02:13;97566.28;;;8.81;100.00
52319;BME280;38258;51.148;14.068;2022-12-29T11:04:51;97561.16;;;8.52;100.00
52319;BME280;38258;51.148;14.068;2022-12-29T11:07:22;97560.34;;;8.21;100.00
52319;BME280;38258;51.148;14.068;2022-12-29T11:09:49;97563.41;;;8.07;100.00
52319;BME280;38258;51.148;14.068;2022-12-29T11:12:22;97558.59;;;7.95;100.00
52319;BME280;38258;51.148;14.068;2022-12-29T11:15:07;97551.53;;;7.99;100.00
52319;BME280;38258;51.148;14.068;2022-12-29T11:17:44;97555.03;;;8.25;100.00
52319;BME280;38258;51.148;14.068;2022-12-29T11:20:27;97544.00;;;8.18;100.00
52319;BME280;38258;51.148;14.068;2022-12-29T11:22:54;97547.81;;;8.06;100.00
52319;BME280;38258;51.148;14.068;2022-12-29T11:25:21;97544.78;;;8.20;100.00
52319;BME280;38258;51.148;14.068;2022-12-29T11:27:55;97549.44;;;8.10;100.00
52319;BME280;38258;51.148;14.068;2022-12-29T11:30:25;97528.78;;;8.04;100.00
52319;BME280;38258;51.148;14.068;2022-12-29T11:32:53;97532.97;;;8.10;100.00
52319;BME280;38258;51.148;14.068;2022-12-29T11:35:30;97546.13;;;8.05;100.00
52319;BME280;38258;51.148;14.068;2022-12-29T11:37:58;97540.13;;;8.03;100.00
52319;BME280;38258;51.148;14.068;2022-12-29T11:40:25;97552.38;;;7.99;100.00
52319;BME280;38258;51.148;14.068;2022-12-29T11:42:54;97549.97;;;7.93;100.00
52319;BME280;38258;51.148;14.068;2022-12-29T11:45:24;97558.63;;;7.93;100.00
52319;BME280;38258;51.148;14.068;2022-12-29T11:47:53;97552.09;;;8.09;100.00
52319;BME280;38258;51.148;14.068;2022-12-29T11:50:22;97544.69;;;7.95;100.00
52319;BME280;38258;51.148;14.068;2022-12-29T11:52:57;97541.06;;;8.00;100.00
52319;BME280;38258;51.148;14.068;2022-12-29T11:55:26;97549.91;;;7.95;100.00
52319;BME280;38258;51.148;14.068;2022-12-29T11:57:55;97550.78;;;7.95;100.00
52319;BME280;38258;51.148;14.068;2022-12-29T12:00:27;97540.53;;;7.89;100.00
52319;BME280;38258;51.148;14.068;2022-12-29T12:02:58;97552.69;;;7.90;100.00
52319;BME280;38258;51.148;14.068;2022-12-29T12:05:35;97554.94;;;8.01;100.00
52319;BME280;38258;51.148;14.068;2022-12-29T12:08:11;97538.41;;;8.02;100.00
52319;BME280;38258;51.148;14.068;2022-12-29T12:10:44;97534.78;;;8.07;100.00
52319;BME280;38258;51.148;14.068;2022-12-29T12:13:22;97558.31;;;8.04;100.00
52319;BME280;38258;51.148;14.068;2022-12-29T12:15:57;97558.97;;;8.11;100.00
52319;BME280;38258;51.148;14.068;2022-12-29T12:18:37;97565.25;;;8.04;100.00
52319;BME280;38258;51.148;14.068;2022-12-29T12:21:12;97554.22;;;7.96;100.00
52319;BME280;38258;51.148;14.068;2022-12-29T12:23:49;97550.91;;;7.90;100.00
52319;BME280;38258;51.148;14.068;2022-12-29T12:26:20;97561.09;;;7.98;100.00
52319;BME280;38258;51.148;14.068;2022-12-29T12:28:52;97564.31;;;8.06;100.00
52319;BME280;38258;51.148;14.068;2022-12-29T12:31:41;97550.50;;;8.04;100.00
52319;BME280;38258;51.148;14.068;2022-12-29T12:34:13;97542.03;;;7.98;100.00
52319;BME280;38258;51.148;14.068;2022-12-29T12:36:55;97528.03;;;8.00;100.00
52319;BME280;38258;51.148;14.068;2022-12-29T12:39:27;97527.69;;;7.84;100.00
52319;BME280;38258;51.148;14.068;2022-12-29T12:42:11;97528.25;;;7.94;100.00
52319;BME280;38258;51.148;14.068;2022-12-29T12:44:53;97524.22;;;7.84;100.00
52319;BME280;38258;51.148;14.068;2022-12-29T12:47:34;97527.38;;;7.93;100.00
52319;BME280;38258;51.148;14.068;2022-12-29T12:50:18;97524.28;;;8.09;100.00
52319;BME280;38258;51.148;14.068;2022-12-29T12:53:03;97517.84;;;8.21;100.00
52319;BME280;38258;51.148;14.068;2022-12-29T12:55:45;97509.41;;;8.40;100.00
52319;BME280;38258;51.148;14.068;2022-12-29T12:58:20;97514.78;;;8.62;100.00
52319;BME280;38258;51.148;14.068;2022-12-29T13:00:59;97493.38;;;8.52;100.00
52319;BME280;38258;51.148;14.068;2022-12-29T13:03:44;97465.63;;;8.49;100.00
52319;BME280;38258;51.148;14.068;2022-12-29T13:06:20;97487.13;;;8.82;100.00
52319;BME280;38258;51.148;14.068;2022-12-29T13:11:49;97488.00;;;8.82;100.00
52319;BME280;38258;51.148;14.068;2022-12-29T13:14:29;97477.06;;;8.72;100.00
52319;BME280;38258;51.148;14.068;2022-12-29T13:17:04;97492.63;;;8.99;100.00
52319;BME280;38258;51.148;14.068;2022-12-29T13:19:41;97488.06;;;9.28;100.00
52319;BME280;38258;51.148;14.068;2022-12-29T13:22:14;97490.59;;;9.30;100.00
52319;BME280;38258;51.148;14.068;2022-12-29T13:24:52;97489.72;;;9.53;100.00
52319;BME280;38258;51.148;14.068;2022-12-29T13:27:28;97492.34;;;9.53;100.00
52319;BME280;38258;51.148;14.068;2022-12-29T13:30:02;97502.00;;;9.96;100.00
52319;BME280;38258;51.148;14.068;2022-12-29T13:32:43;97511.31;;;10.03;100.00
52319;BME280;38258;51.148;14.068;2022-12-29T13:35:25;97501.94;;;10.19;100.00
52319;BME280;38258;51.148;14.068;2022-12-29T13:38:00;97493.97;;;10.23;100.00
52319;BME280;38258;51.148;14.068;2022-12-29T13:40:32;97513.31;;;10.39;100.00
52319;BME280;38258;51.148;14.068;2022-12-29T13:43:01;97508.22;;;10.36;100.00
52319;BME280;38258;51.148;14.068;2022-12-29T13:45:30;97488.72;;;10.23;100.00
52319;BME280;38258;51.148;14.068;2022-12-29T13:48:04;97507.22;;;10.40;100.00
52319;BME280;38258;51.148;14.068;2022-12-29T13:50:36;97510.69;;;10.39;100.00
52319;BME280;38258;51.148;14.068;2022-12-29T13:53:11;97509.22;;;10.33;100.00
52319;BME280;38258;51.148;14.068;2022-12-29T13:55:47;97514.63;;;10.51;100.00
52319;BME280;38258;51.148;14.068;2022-12-29T13:58:22;97517.72;;;10.39;100.00
52319;BME280;38258;51.148;14.068;2022-12-29T14:00:56;97524.53;;;10.21;100.00
52319;BME280;38258;51.148;14.068;2022-12-29T14:03:45;97528.44;;;10.10;100.00
52319;BME280;38258;51.148;14.068;2022-12-29T14:06:33;97528.06;;;10.19;100.00
52319;BME280;38258;51.148;14.068;2022-12-29T14:11:52;97532.00;;;10.30;100.00
52319;BME280;38258;51.148;14.068;2022-12-29T14:14:21;97520.88;;;10.25;100.00
52319;BME280;38258;51.148;14.068;2022-12-29T14:16:49;97527.88;;;10.24;100.00
52319;BME280;38258;51.148;14.068;2022-12-29T14:19:18;97522.53;;;10.27;100.00
52319;BME280;38258;51.148;14.068;2022-12-29T14:21:54;97524.44;;;10.01;100.00
52319;BME280;38258;51.148;14.068;2022-12-29T14:24:39;97531.16;;;10.07;100.00
52319;BME280;38258;51.148;14.068;2022-12-29T14:27:43;97521.81;;;10.01;100.00
52319;BME280;38258;51.148;14.068;2022-12-29T14:33:12;97521.34;;;9.92;100.00
52319;BME280;38258;51.148;14.068;2022-12-29T14:35:42;97517.19;;;9.86;100.00
52319;BME280;38258;51.148;14.068;2022-12-29T14:38:22;97537.00;;;9.92;100.00
52319;BME280;38258;51.148;14.068;2022-12-29T14:40:50;97544.50;;;10.01;100.00
52319;BME280;38258;51.148;14.068;2022-12-29T14:43:21;97533.75;;;9.86;100.00
52319;BME280;38258;51.148;14.068;2022-12-29T14:45:54;97544.00;;;9.91;100.00
52319;BME280;38258;51.148;14.068;2022-12-29T14:48:30;97548.13;;;9.97;100.00
52319;BME280;38258;51.148;14.068;2022-12-29T14:50:59;97536.88;;;9.95;100.00